Time;durP1;ratioP1;P1;durP2;ratioP2;P2;SDS_P1;SDS_P2;PMS_P1;PMS_P2;Temp;Humidity;BMP_temperature;BMP_pressure;BME280_temperature;BME280_humidity;BME280_pressure;Samples;Min_cycle;Max_cycle;Signal;HPM_P1;HPM_P2
2023/09/20 00:00:36;;;;;;;;;;;;;;;23.04;35.54;101014.19;5010801;28;19917;-90
2023/09/20 00:03:02;;;;;;;;;;;;;;;23.03;35.53;101009.84;5008129;28;19963;-92
2023/09/20 00:05:28;;;;;;;;;;;;;;;23.01;35.61;101001.19;5007668;28;19922;-92
2023/09/20 00:07:54;;;;;;;;;;;;;;;22.99;35.65;100999.91;5012488;28;20306;-92
2023/09/20 00:10:21;;;;;;;;;;;;;;;22.97;35.59;100994.72;5010972;28;20044;-91
2023/09/20 00:12:50;;;;;;;;;;;;;;;22.95;35.57;100999.72;5007307;28;19925;-92
2023/09/20 00:15:17;;;;;;;;;;;;;;;22.88;35.81;101002.97;5006998;28;19929;-92
2023/09/20 00:17:44;;;;;;;;;;;;;;;22.86;35.73;101001.69;5006128;28;19925;-92
2023/09/20 00:20:13;;;;;;;;;;;;;;;22.81;35.72;100999.09;5008061;28;19918;-92
2023/09/20 00:22:44;;;;;;;;;;;;;;;22.80;35.78;100992.00;5004368;28;20015;-91
2023/09/20 00:25:11;;;;;;;;;;;;;;;22.78;36.01;100994.25;5011102;28;19924;-92
2023/09/20 00:27:40;;;;;;;;;;;;;;;22.76;35.95;100997.31;5009504;28;20343;-92
2023/09/20 00:30:10;;;;;;;;;;;;;;;22.75;35.79;100997.66;5011139;28;19917;-92
2023/09/20 00:32:40;;;;;;;;;;;;;;;22.71;36.05;101000.22;5004668;28;19921;-92
2023/09/20 00:35:11;;;;;;;;;;;;;;;22.69;35.79;100999.75;5016903;28;19917;-91
2023/09/20 00:37:40;;;;;;;;;;;;;;;22.69;35.79;101002.47;5022283;28;20537;-92
2023/09/20 00:40:23;;;;;;;;;;;;;;;22.70;35.97;101004.09;5000402;28;19963;-92
2023/09/20 00:42:51;;;;;;;;;;;;;;;22.72;35.83;101001.03;5003751;28;20008;-92
2023/09/20 00:45:19;;;;;;;;;;;;;;;22.73;36.03;101003.44;5006311;28;19995;-93
2023/09/20 00:47:51;;;;;;;;;;;;;;;22.70;35.85;100998.63;5007238;28;19930;-92
2023/09/20 00:50:17;;;;;;;;;;;;;;;22.66;36.06;100989.47;5004449;28;19961;-92
2023/09/20 00:52:44;;;;;;;;;;;;;;;22.59;36.24;100995.41;5009255;28;19988;-92
2023/09/20 00:55:15;;;;;;;;;;;;;;;22.54;36.10;100995.59;5008851;28;20019;-93
2023/09/20 00:57:47;;;;;;;;;;;;;;;22.51;36.29;100990.78;5001157;28;19971;-91
2023/09/20 01:00:25;;;;;;;;;;;;;;;22.45;36.42;100988.53;5004003;28;19933;-91
2023/09/20 01:02:52;;;;;;;;;;;;;;;22.46;36.54;100985.47;5005098;28;19917;-93
2023/09/20 01:05:21;;;;;;;;;;;;;;;22.42;36.30;100983.69;5004632;28;19937;-92
2023/09/20 01:07:47;;;;;;;;;;;;;;;22.39;36.49;100987.88;5003870;28;19928;-93
2023/09/20 01:10:23;;;;;;;;;;;;;;;22.36;36.34;100987.72;4999696;28;19926;-93
2023/09/20 01:12:54;;;;;;;;;;;;;;;22.30;36.93;100993.34;5002303;28;19929;-93
2023/09/20 01:15:21;;;;;;;;;;;;;;;22.28;36.70;100994.78;5001985;28;21237;-92
2023/09/20 01:17:48;;;;;;;;;;;;;;;22.26;36.68;100995.13;5008427;28;19917;-94
2023/09/20 01:20:14;;;;;;;;;;;;;;;22.27;36.65;100990.47;5001406;28;20468;-93
2023/09/20 01:22:40;;;;;;;;;;;;;;;22.28;36.57;101002.97;5013735;28;20447;-93
2023/09/20 01:25:07;;;;;;;;;;;;;;;22.25;36.65;100998.13;5006130;28;19921;-93
2023/09/20 01:27:35;;;;;;;;;;;;;;;22.26;36.82;100988.81;5005717;28;19921;-93
2023/09/20 01:30:03;;;;;;;;;;;;;;;22.27;36.73;100990.47;5005368;28;19922;-93
2023/09/20 01:32:29;;;;;;;;;;;;;;;22.25;36.93;100988.03;5006127;28;19988;-93
2023/09/20 01:34:57;;;;;;;;;;;;;;;22.25;36.80;100992.69;5005036;28;19921;-92
2023/09/20 01:37:22;;;;;;;;;;;;;;;22.25;36.94;100988.03;5008134;28;19921;-92
2023/09/20 01:39:49;;;;;;;;;;;;;;;22.26;36.87;100997.00;5005205;28;19940;-93
2023/09/20 01:42:21;;;;;;;;;;;;;;;22.21;36.96;100997.97;4984896;28;20000;-93
2023/09/20 01:44:57;;;;;;;;;;;;;;;22.18;36.91;100998.63;4981420;28;20820;-92
2023/09/20 01:47:23;;;;;;;;;;;;;;;22.19;36.90;100994.78;4982887;28;19926;-93
2023/09/20 01:49:50;;;;;;;;;;;;;;;22.22;37.00;100993.31;4969785;28;19945;-93
2023/09/20 01:52:16;;;;;;;;;;;;;;;22.25;36.79;100989.94;4987082;28;19976;-93
2023/09/20 01:54:43;;;;;;;;;;;;;;;22.29;36.87;100993.66;4985871;28;20740;-93
2023/09/20 01:57:10;;;;;;;;;;;;;;;22.31;36.86;100996.88;4981336;28;19968;-91
2023/09/20 01:59:37;;;;;;;;;;;;;;;22.33;36.56;101000.09;4986159;28;19929;-91
2023/09/20 02:02:03;;;;;;;;;;;;;;;22.33;36.61;100994.63;4991277;28;19922;-94
2023/09/20 02:04:28;;;;;;;;;;;;;;;;;;4986922;28;20421;-92
2023/09/20 02:06:54;;;;;;;;;;;;;;;22.37;36.81;101000.25;4983586;28;19921;-93
2023/09/20 02:09:19;;;;;;;;;;;;;;;22.39;36.65;101003.44;4988995;28;21402;-94
2023/09/20 02:11:45;;;;;;;;;;;;;;;22.43;36.57;100998.94;4982433;28;19918;-91
2023/09/20 02:14:11;;;;;;;;;;;;;;;22.46;36.72;101001.06;5006454;28;19960;-92
2023/09/20 02:16:38;;;;;;;;;;;;;;;22.48;36.49;100996.88;4981156;28;19926;-93
2023/09/20 02:19:07;;;;;;;;;;;;;;;22.44;36.65;101001.38;4982996;28;20436;-92
2023/09/20 02:21:36;;;;;;;;;;;;;;;22.42;36.64;100994.63;4980363;28;19956;-93
2023/09/20 02:24:05;;;;;;;;;;;;;;;22.43;36.74;100990.75;4999721;28;19925;-94
2023/09/20 02:26:30;;;;;;;;;;;;;;;22.45;36.90;100994.78;5006337;28;19926;-90
2023/09/20 02:28:56;;;;;;;;;;;;;;;22.39;36.79;100990.59;4999513;28;20334;-91
2023/09/20 02:31:25;;;;;;;;;;;;;;;22.38;36.89;100991.72;4983537;28;19929;-91
2023/09/20 02:33:56;;;;;;;;;;;;;;;22.43;36.71;100988.03;4988053;28;19921;-91
2023/09/20 02:36:28;;;;;;;;;;;;;;;22.43;36.71;100994.28;4986448;28;19918;-90
2023/09/20 02:38:59;;;;;;;;;;;;;;;22.47;36.69;100992.53;4987091;28;19930;-94
2023/09/20 02:41:27;;;;;;;;;;;;;;;22.45;36.91;100985.81;4984937;28;19928;-92
2023/09/20 02:43:53;;;;;;;;;;;;;;;22.45;36.67;100986.59;4991481;28;20004;-93
2023/09/20 02:46:20;;;;;;;;;;;;;;;22.45;36.79;100978.41;4988559;28;19922;-93
2023/09/20 02:48:49;;;;;;;;;;;;;;;22.45;36.98;100986.59;4984685;28;19921;-92
2023/09/20 02:51:17;;;;;;;;;;;;;;;22.46;37.00;100985.47;4980919;28;19965;-93
2023/09/20 02:53:44;;;;;;;;;;;;;;;22.49;36.93;100993.03;4990324;28;19932;-93
2023/09/20 02:56:10;;;;;;;;;;;;;;;22.53;36.87;100993.19;4988204;28;19930;-91
2023/09/20 02:58:37;;;;;;;;;;;;;;;22.53;36.79;100991.25;5000729;28;19945;-91
2023/09/20 03:01:02;;;;;;;;;;;;;;;22.56;36.80;100989.78;5010046;28;19925;-91
2023/09/20 03:03:29;;;;;;;;;;;;;;;22.62;36.75;100988.50;4986301;28;20448;-91
2023/09/20 03:06:06;;;;;;;;;;;;;;;22.65;36.75;100985.13;4991151;28;19928;-91
2023/09/20 03:08:35;;;;;;;;;;;;;;;22.71;36.83;100985.75;4985463;28;20042;-92
2023/09/20 03:11:04;;;;;;;;;;;;;;;22.74;36.85;100979.66;4983667;28;19924;-92
2023/09/20 03:13:52;;;;;;;;;;;;;;;22.78;36.72;100983.34;4981318;28;19925;-92
2023/09/20 03:16:23;;;;;;;;;;;;;;;22.79;36.52;100984.94;4999733;28;19926;-92
2023/09/20 03:18:50;;;;;;;;;;;;;;;22.79;36.70;100984.94;4999406;28;19956;-92
2023/09/20 03:21:19;;;;;;;;;;;;;;;22.80;36.62;100975.63;4984868;28;19925;-92
2023/09/20 03:23:44;;;;;;;;;;;;;;;22.86;36.51;100974.38;4982287;28;20012;-92
2023/09/20 03:26:10;;;;;;;;;;;;;;;22.86;36.53;100979.81;4981777;28;19922;-92
2023/09/20 03:28:36;;;;;;;;;;;;;;;22.84;36.47;100977.44;4986306;28;19938;-93
2023/09/20 03:31:06;;;;;;;;;;;;;;;22.81;36.67;100982.72;4989061;28;19987;-93
2023/09/20 03:33:33;;;;;;;;;;;;;;;22.84;36.55;100980.16;4988687;28;19936;-92
2023/09/20 03:36:04;;;;;;;;;;;;;;;22.89;36.70;100987.38;4982879;28;19928;-94
2023/09/20 03:38:32;;;;;;;;;;;;;;;22.93;36.55;100985.59;4997623;28;20378;-91
2023/09/20 03:40:59;;;;;;;;;;;;;;;22.96;36.65;100989.59;4986112;28;19918;-91
2023/09/20 03:43:27;;;;;;;;;;;;;;;22.95;36.60;100991.53;4988466;28;19917;-93
2023/09/20 03:45:54;;;;;;;;;;;;;;;22.97;36.55;100989.25;4990564;28;19921;-93
2023/09/20 03:48:21;;;;;;;;;;;;;;;22.97;36.61;100980.28;4998385;28;19926;-91
2023/09/20 03:50:49;;;;;;;;;;;;;;;22.97;36.56;100991.19;4985911;28;19956;-91
2023/09/20 03:53:16;;;;;;;;;;;;;;;23.02;36.59;100986.38;4984008;28;19944;-91
2023/09/20 03:55:50;;;;;;;;;;;;;;;23.05;36.50;100988.47;4978087;28;20445;-93
2023/09/20 03:58:20;;;;;;;;;;;;;;;23.07;36.47;100979.94;4979422;28;20008;-92
2023/09/20 04:00:47;;;;;;;;;;;;;;;23.07;36.36;100991.66;4981406;28;19921;-93
2023/09/20 04:03:17;;;;;;;;;;;;;;;23.08;36.41;100993.25;4981208;28;19922;-93
2023/09/20 04:05:46;;;;;;;;;;;;;;;23.07;36.48;100997.13;4983469;28;20163;-93
2023/09/20 04:08:16;;;;;;;;;;;;;;;23.01;36.60;100990.25;4979589;28;19922;-92
2023/09/20 04:10:45;;;;;;;;;;;;;;;23.01;36.65;100987.50;4972986;28;19931;-94
2023/09/20 04:13:13;;;;;;;;;;;;;;;23.01;36.84;100992.97;4963743;28;19934;-94
2023/09/20 04:15:42;;;;;;;;;;;;;;;22.98;36.73;100993.63;4981138;28;19954;-92
2023/09/20 04:18:08;;;;;;;;;;;;;;;22.95;36.66;101002.44;4978868;28;19926;-93
2023/09/20 04:20:33;;;;;;;;;;;;;;;22.89;36.70;100990.91;4978882;28;19930;-94
2023/09/20 04:23:02;;;;;;;;;;;;;;;22.82;36.87;100993.34;4980178;28;19926;-92
2023/09/20 04:25:27;;;;;;;;;;;;;;;22.81;36.80;100994.44;4999902;28;19929;-93
2023/09/20 04:27:53;;;;;;;;;;;;;;;22.76;37.11;100989.13;4981187;28;19941;-93
2023/09/20 04:30:19;;;;;;;;;;;;;;;22.78;36.82;100997.78;4978464;28;19921;-93
2023/09/20 04:32:44;;;;;;;;;;;;;;;22.77;37.14;101000.84;4980477;28;20390;-93
2023/09/20 04:35:11;;;;;;;;;;;;;;;22.76;36.96;101005.50;4980951;28;19941;-93
2023/09/20 04:37:38;;;;;;;;;;;;;;;22.76;37.16;101002.78;4980843;28;20363;-93
2023/09/20 04:40:09;;;;;;;;;;;;;;;22.74;36.91;100996.84;4982250;28;19929;-91
2023/09/20 04:42:35;;;;;;;;;;;;;;;22.74;37.11;101005.03;4978588;28;20386;-93
2023/09/20 04:45:06;;;;;;;;;;;;;;;22.74;37.08;101005.03;4985547;28;19981;-93
2023/09/20 04:47:35;;;;;;;;;;;;;;;22.72;37.16;101006.50;4983571;28;19922;-94
2023/09/20 04:50:05;;;;;;;;;;;;;;;22.70;37.09;101009.53;4983901;28;20509;-93
2023/09/20 04:52:33;;;;;;;;;;;;;;;22.71;37.20;101002.97;4997876;28;19933;-92
2023/09/20 04:55:00;;;;;;;;;;;;;;;22.73;37.01;101008.09;4983001;28;20257;-93
2023/09/20 04:57:26;;;;;;;;;;;;;;;22.69;37.06;101005.22;4999712;28;19921;-92
2023/09/20 04:59:53;;;;;;;;;;;;;;;22.71;37.05;101005.69;4983326;28;20460;-93
2023/09/20 05:02:22;;;;;;;;;;;;;;;22.64;37.31;101005.38;4983976;28;20015;-93
2023/09/20 05:04:55;;;;;;;;;;;;;;;22.61;37.37;101001.34;4982953;28;19925;-93
2023/09/20 05:07:26;;;;;;;;;;;;;;;22.56;37.48;101011.63;4985631;28;19938;-93
2023/09/20 05:09:52;;;;;;;;;;;;;;;22.55;37.54;101010.84;4985202;28;19922;-89
2023/09/20 05:12:18;;;;;;;;;;;;;;;22.48;37.62;101010.53;4986135;28;20452;-90
2023/09/20 05:14:43;;;;;;;;;;;;;;;22.51;37.64;101022.72;4979771;28;19932;-90
2023/09/20 05:17:09;;;;;;;;;;;;;;;22.52;37.71;101024.34;4981456;28;20097;-89
2023/09/20 05:19:37;;;;;;;;;;;;;;;22.55;37.70;101021.75;5003962;28;19922;-90
2023/09/20 05:22:05;;;;;;;;;;;;;;;22.59;37.51;101030.91;4998141;28;19922;-90
2023/09/20 05:24:33;;;;;;;;;;;;;;;22.59;37.58;101030.09;4989011;28;20357;-91
2023/09/20 05:26:58;;;;;;;;;;;;;;;22.61;37.34;101031.38;4997127;28;19926;-90
2023/09/20 05:29:25;;;;;;;;;;;;;;;22.59;37.78;101039.09;4983525;28;20337;-90
2023/09/20 05:31:51;;;;;;;;;;;;;;;22.61;37.75;101039.56;4981860;28;20173;-90
2023/09/20 05:34:19;;;;;;;;;;;;;;;22.59;37.68;101039.09;5001211;28;20020;-92
2023/09/20 05:36:52;;;;;;;;;;;;;;;22.56;37.77;101042.47;4982473;28;20426;-91
2023/09/20 05:39:20;;;;;;;;;;;;;;;22.53;37.96;101045.84;4981672;28;19925;-91
2023/09/20 05:41:47;;;;;;;;;;;;;;;22.54;37.93;101046.66;4977104;28;19929;-92
2023/09/20 05:44:13;;;;;;;;;;;;;;;22.54;37.92;101050.19;4977056;28;19933;-91
2023/09/20 05:46:39;;;;;;;;;;;;;;;22.53;38.06;101042.31;4983011;28;20073;-90
2023/09/20 05:49:06;;;;;;;;;;;;;;;22.56;37.77;101038.94;4981310;28;20428;-91
2023/09/20 05:51:33;;;;;;;;;;;;;;;22.54;37.88;101044.72;4981084;28;20020;-92
2023/09/20 05:53:59;;;;;;;;;;;;;;;22.55;38.18;101046.34;4982761;28;20413;-91
2023/09/20 05:56:25;;;;;;;;;;;;;;;22.56;37.83;101050.69;4985364;28;19918;-91
2023/09/20 05:58:54;;;;;;;;;;;;;;;22.54;38.02;101044.72;4986963;28;19918;-91
2023/09/20 06:01:23;;;;;;;;;;;;;;;22.55;38.05;101042.81;4982702;28;19949;-91
2023/09/20 06:03:50;;;;;;;;;;;;;;;22.58;38.40;101040.22;4999188;28;19926;-92
2023/09/20 06:06:18;;;;;;;;;;;;;;;22.60;38.34;101043.44;4999111;28;19922;-91
2023/09/20 06:08:46;;;;;;;;;;;;;;;22.65;38.29;101049.88;4982677;28;19945;-90
2023/09/20 06:11:12;;;;;;;;;;;;;;;22.71;38.19;101057.59;4982618;28;20029;-92
2023/09/20 06:13:42;;;;;;;;;;;;;;;22.71;38.07;101054.06;4978162;28;19997;-91
2023/09/20 06:16:09;;;;;;;;;;;;;;;22.74;38.25;101047.94;4982998;28;20545;-90
2023/09/20 06:18:36;;;;;;;;;;;;;;;22.74;38.11;101047.94;4982401;28;19922;-92
2023/09/20 06:21:03;;;;;;;;;;;;;;;22.79;38.29;101055.97;4998909;28;20472;-92
2023/09/20 06:23:30;;;;;;;;;;;;;;;22.76;38.50;101048.41;4983812;28;20378;-92
2023/09/20 06:26:03;;;;;;;;;;;;;;;22.77;38.20;101048.09;4981434;28;20021;-93
2023/09/20 06:28:31;;;;;;;;;;;;;;;22.79;38.44;101051.31;4981550;28;20028;-89
2023/09/20 06:30:58;;;;;;;;;;;;;;;22.77;38.48;101050.03;4978259;28;19937;-89
2023/09/20 06:33:23;;;;;;;;;;;;;;;22.78;39.04;101051.63;4984362;28;20001;-88
2023/09/20 06:35:50;;;;;;;;;;;;;;;22.78;38.44;101054.34;4987903;28;19997;-89
2023/09/20 06:38:16;;;;;;;;;;;;;;;22.81;38.68;101059.19;4984402;28;19921;-91
2023/09/20 06:40:50;;;;;;;;;;;;;;;22.86;38.75;101059.84;4982603;28;19930;-92
2023/09/20 06:43:16;;;;;;;;;;;;;;;22.94;38.61;101062.91;4990287;28;20389;-91
2023/09/20 06:45:51;;;;;;;;;;;;;;;22.97;38.66;101064.97;4981591;28;19929;-89
2023/09/20 06:48:24;;;;;;;;;;;;;;;23.02;38.60;101075.75;4987548;28;19925;-90
2023/09/20 06:50:51;;;;;;;;;;;;;;;23.05;39.04;101073.19;4981967;28;20094;-89
2023/09/20 06:53:17;;;;;;;;;;;;;;;23.15;38.73;101075.53;4977688;28;20441;-88
2023/09/20 06:55:42;;;;;;;;;;;;;;;23.30;38.78;101076.16;4973424;28;19932;-88
2023/09/20 06:58:08;;;;;;;;;;;;;;;23.51;38.50;101082.53;4978121;28;19922;-90
2023/09/20 07:00:35;;;;;;;;;;;;;;;23.60;38.42;101077.88;4976207;28;19963;-88
2023/09/20 07:03:02;;;;;;;;;;;;;;;23.72;38.28;101083.47;4977501;28;20944;-88
2023/09/20 07:05:28;;;;;;;;;;;;;;;23.77;38.30;101075.06;4981594;28;20020;-90
2023/09/20 07:07:56;;;;;;;;;;;;;;;23.80;38.27;101071.69;4983873;28;19922;-88
2023/09/20 07:10:23;;;;;;;;;;;;;;;23.75;38.30;101082.81;4982064;28;19925;-92
2023/09/20 07:12:49;;;;;;;;;;;;;;;23.80;38.19;101093.56;4983915;28;19926;-89
2023/09/20 07:15:20;;;;;;;;;;;;;;;23.79;38.27;101091.97;4982523;28;19918;-89
2023/09/20 07:17:58;;;;;;;;;;;;;;;23.84;38.32;101085.50;4987127;28;19934;-90
2023/09/20 07:20:28;;;;;;;;;;;;;;;23.86;38.43;101087.91;4987787;28;19918;-93
2023/09/20 07:22:54;;;;;;;;;;;;;;;23.87;38.26;101092.25;4988849;28;19992;-92
2023/09/20 07:25:27;;;;;;;;;;;;;;;23.94;38.39;101092.53;4987895;28;20064;-88
2023/09/20 07:27:55;;;;;;;;;;;;;;;24.02;38.23;101097.16;4980085;28;19945;-89
2023/09/20 07:30:23;;;;;;;;;;;;;;;24.00;38.48;101102.97;4988547;28;19922;-91
2023/09/20 07:32:53;;;;;;;;;;;;;;;24.00;38.33;101088.47;4982679;28;20009;-88
2023/09/20 07:35:28;;;;;;;;;;;;;;;24.04;38.55;101108.56;4985171;28;19924;-89
2023/09/20 07:37:58;;;;;;;;;;;;;;;24.07;38.36;101105.19;4988193;28;20404;-92
2023/09/20 07:40:28;;;;;;;;;;;;;;;24.10;38.39;101107.28;4989700;28;19922;-92
2023/09/20 07:42:59;;;;;;;;;;;;;;;24.16;38.58;101103.19;4990381;28;19918;-92
2023/09/20 07:45:27;;;;;;;;;;;;;;;24.28;38.24;101103.31;4994799;28;19977;-91
2023/09/20 07:47:53;;;;;;;;;;;;;;;24.41;38.18;101109.66;4990908;28;19925;-89
2023/09/20 07:50:21;;;;;;;;;;;;;;;24.47;38.22;101108.34;4988413;28;19918;-89
2023/09/20 07:52:47;;;;;;;;;;;;;;;24.53;38.53;101108.97;4983102;28;20417;-89
2023/09/20 07:55:14;;;;;;;;;;;;;;;24.64;38.24;101099.22;4985743;28;19925;-90
2023/09/20 07:57:40;;;;;;;;;;;;;;;24.74;38.06;101098.78;4986533;28;19929;-87
2023/09/20 08:00:15;;;;;;;;;;;;;;;24.80;38.06;101100.22;4979272;28;19941;-89
2023/09/20 08:02:47;;;;;;;;;;;;;;;24.84;38.11;101101.13;4983936;28;19926;-92
2023/09/20 08:05:13;;;;;;;;;;;;;;;24.96;37.87;101106.69;4988074;28;20418;-93
2023/09/20 08:07:38;;;;;;;;;;;;;;;25.03;37.86;101108.09;4985874;28;19940;-90
2023/09/20 08:10:05;;;;;;;;;;;;;;;25.07;37.72;101098.06;4986678;28;19943;-89
2023/09/20 08:12:31;;;;;;;;;;;;;;;25.10;37.80;101097.38;4977918;28;19925;-89
2023/09/20 08:14:57;;;;;;;;;;;;;;;25.13;37.88;101108.47;4977742;28;20013;-90
2023/09/20 08:20:11;;;;;;;;;;;;;;;25.26;37.77;101107.38;4984362;28;20551;-92
2023/09/20 09:01:04;;;;;;;;;;;;;;;26.10;37.04;101113.34;4987046;28;20341;-93
2023/09/20 09:03:33;;;;;;;;;;;;;;;26.12;37.26;101121.25;4985300;28;20203;-93
2023/09/20 09:06:01;;;;;;;;;;;;;;;26.12;37.16;101122.03;4983036;28;20000;-94
2023/09/20 09:08:28;;;;;;;;;;;;;;;26.13;37.21;101128.34;5001985;28;20081;-93
2023/09/20 09:10:55;;;;;;;;;;;;;;;26.12;37.33;101127.53;4983642;28;19922;-92
2023/09/20 09:13:22;;;;;;;;;;;;;;;26.17;37.24;101115.50;4996219;28;19929;-94
2023/09/20 09:15:50;;;;;;;;;;;;;;;26.23;37.27;101108.66;4984711;28;20125;-94
2023/09/20 09:18:18;;;;;;;;;;;;;;;26.42;37.14;101108.09;4998859;28;20047;-95
2023/09/20 09:20:44;;;;;;;;;;;;;;;26.71;36.79;101098.72;4982220;28;19961;-89
2023/09/20 09:23:13;;;;;;;;;;;;;;;26.86;36.64;101092.47;4979751;28;20394;-89
2023/09/20 09:25:39;;;;;;;;;;;;;;;27.06;36.38;101099.75;4979592;28;19933;-88
2023/09/20 09:28:05;;;;;;;;;;;;;;;27.16;36.25;101098.47;4981741;28;19921;-93
2023/09/20 09:30:33;;;;;;;;;;;;;;;27.27;35.95;101099.53;4983487;28;19961;-94
2023/09/20 09:33:01;;;;;;;;;;;;;;;27.37;36.19;101093.50;4976447;28;19933;-89
2023/09/20 09:35:31;;;;;;;;;;;;;;;27.49;35.94;101097.34;4978971;28;20110;-90
2023/09/20 09:38:00;;;;;;;;;;;;;;;27.56;35.79;101089.28;4979736;28;19918;-89
2023/09/20 09:40:25;;;;;;;;;;;;;;;27.60;35.72;101088.19;4982918;28;19925;-91
2023/09/20 09:42:53;;;;;;;;;;;;;;;27.62;35.52;101094.13;4983023;28;19918;-91
2023/09/20 09:45:31;;;;;;;;;;;;;;;27.66;35.79;101088.78;4979566;28;19957;-89
2023/09/20 09:48:00;;;;;;;;;;;;;;;27.72;35.52;101083.78;4983229;28;19925;-93
2023/09/20 09:50:49;;;;;;;;;;;;;;;27.84;35.23;101092.75;4983949;28;20004;-93
2023/09/20 09:53:24;;;;;;;;;;;;;;;27.90;35.04;101085.03;4983821;28;19928;-90
2023/09/20 09:55:51;;;;;;;;;;;;;;;27.99;35.19;101094.69;4981059;28;19926;-88
2023/09/20 09:58:17;;;;;;;;;;;;;;;28.10;34.96;101078.41;4983481;28;19917;-92
2023/09/20 10:00:48;;;;;;;;;;;;;;;28.24;34.93;101075.19;4998854;28;20293;-91
2023/09/20 10:03:34;;;;;;;;;;;;;;;28.30;34.78;101084.78;4984230;28;19928;-94
2023/09/20 10:06:23;;;;;;;;;;;;;;;28.40;34.57;101078.72;4985784;28;19975;-91
2023/09/20 10:08:54;;;;;;;;;;;;;;;28.49;34.12;101082.06;4984813;28;19952;-93
2023/09/20 10:11:23;;;;;;;;;;;;;;;28.43;34.38;101090.97;4989685;28;19964;-89
2023/09/20 10:13:52;;;;;;;;;;;;;;;28.45;34.15;101086.69;4992287;28;19963;-92
2023/09/20 10:16:18;;;;;;;;;;;;;;;28.53;34.32;101077.41;4988495;28;19984;-95
2023/09/20 10:18:51;;;;;;;;;;;;;;;28.81;34.02;101081.91;4983576;28;19925;-94
2023/09/20 10:21:20;;;;;;;;;;;;;;;29.03;33.74;101075.69;4980363;28;19926;-93
2023/09/20 10:23:53;;;;;;;;;;;;;;;29.17;33.42;101075.94;4981815;28;19929;-93
2023/09/20 10:26:20;;;;;;;;;;;;;;;29.28;33.39;101084.44;4980853;28;19929;-93
2023/09/20 10:28:47;;;;;;;;;;;;;;;29.36;33.41;101074.31;4980647;28;20020;-91
2023/09/20 10:31:16;;;;;;;;;;;;;;;29.42;32.97;101073.63;4981713;28;19926;-93
2023/09/20 10:33:51;;;;;;;;;;;;;;;29.53;33.14;101073.06;4834876;28;4147861;-93
2023/09/20 10:36:19;;;;;;;;;;;;;;;29.58;32.80;101075.50;4978870;28;19926;-89
2023/09/20 10:38:46;;;;;;;;;;;;;;;29.61;32.94;101064.50;4981174;28;19926;-93
2023/09/20 10:41:14;;;;;;;;;;;;;;;29.73;32.81;101072.59;4979456;28;19964;-94
2023/09/20 10:43:41;;;;;;;;;;;;;;;29.79;32.54;101067.53;4980728;28;19985;-91
2023/09/20 10:46:07;;;;;;;;;;;;;;;29.78;32.30;101064.00;4978649;28;19932;-88
2023/09/20 10:48:39;;;;;;;;;;;;;;;29.77;32.52;101061.59;4980041;28;19998;-91
2023/09/20 10:51:07;;;;;;;;;;;;;;;29.77;32.16;101062.41;4984884;28;20005;-89
2023/09/20 10:53:47;;;;;;;;;;;;;;;29.67;32.15;101074.09;4982567;28;19929;-93
2023/09/20 10:56:32;;;;;;;;;;;;;;;29.56;32.49;101062.06;4978285;28;19930;-92
2023/09/20 10:58:59;;;;;;;;;;;;;;;29.55;32.36;101057.72;4972520;28;20056;-89
2023/09/20 11:01:25;;;;;;;;;;;;;;;29.67;32.21;101065.81;4975073;28;19925;-91
2023/09/20 11:03:51;;;;;;;;;;;;;;;29.81;32.36;101068.00;4981434;28;19932;-88
2023/09/20 11:06:16;;;;;;;;;;;;;;;29.91;32.12;101056.28;4976508;28;19932;-93
2023/09/20 11:08:44;;;;;;;;;;;;;;;29.98;31.84;101045.38;5001908;28;20357;-93
2023/09/20 11:11:16;;;;;;;;;;;;;;;30.13;32.11;101034.53;4981628;28;20181;-90
2023/09/20 11:13:46;;;;;;;;;;;;;;;30.26;31.94;101038.66;4970252;28;19950;-93
2023/09/20 11:16:18;;;;;;;;;;;;;;;30.45;32.09;101032.97;4980114;28;20072;-94
2023/09/20 11:18:47;;;;;;;;;;;;;;;30.75;31.54;101046.81;4979488;28;19922;-90
2023/09/20 11:21:19;;;;;;;;;;;;;;;30.78;31.21;101050.78;4976111;28;19925;-94
2023/09/20 11:23:46;;;;;;;;;;;;;;;30.87;31.57;101040.19;4979567;28;20028;-93
2023/09/20 11:26:15;;;;;;;;;;;;;;;30.96;31.04;101041.50;4978834;28;19929;-88
2023/09/20 11:28:41;;;;;;;;;;;;;;;30.89;30.66;101044.19;4979935;28;19921;-90
2023/09/20 11:31:20;;;;;;;;;;;;;;;30.86;31.17;101044.94;4981000;28;19941;-88
2023/09/20 11:33:56;;;;;;;;;;;;;;;30.72;30.94;101035.72;4980386;28;19929;-94
2023/09/20 11:36:22;;;;;;;;;;;;;;;30.72;31.23;101033.75;4980703;28;19922;-93
2023/09/20 11:38:51;;;;;;;;;;;;;;;30.80;31.22;101035.38;4971420;28;19932;-92
2023/09/20 11:41:21;;;;;;;;;;;;;;;30.90;30.92;101023.66;4990596;28;20264;-93
2023/09/20 11:43:48;;;;;;;;;;;;;;;31.00;30.83;101027.69;4978153;28;20024;-94
2023/09/20 11:46:21;;;;;;;;;;;;;;;31.08;30.80;101028.56;4980257;28;19922;-91
2023/09/20 11:48:57;;;;;;;;;;;;;;;31.27;30.69;101028.38;4977788;28;20478;-91
2023/09/20 11:51:23;;;;;;;;;;;;;;;31.36;30.58;101022.50;4996398;28;19960;-90
2023/09/20 11:53:50;;;;;;;;;;;;;;;31.34;30.64;101022.91;4980231;28;20028;-93
2023/09/20 11:56:23;;;;;;;;;;;;;;;31.38;30.63;101026.47;4979862;28;19937;-91
2023/09/20 11:58:54;;;;;;;;;;;;;;;31.48;30.66;101023.00;4985669;28;19922;-91
2023/09/20 12:01:23;;;;;;;;;;;;;;;31.58;30.19;101025.06;4977708;28;20151;-88
2023/09/20 12:03:51;;;;;;;;;;;;;;;31.54;29.98;101018.69;4980500;28;19922;-91
2023/09/20 12:06:18;;;;;;;;;;;;;;;31.52;29.80;101017.50;4981394;28;19922;-92
2023/09/20 12:08:45;;;;;;;;;;;;;;;31.48;30.16;101013.91;4983061;28;19921;-92
2023/09/20 12:11:15;;;;;;;;;;;;;;;31.45;29.75;101003.59;4980742;28;20060;-94
2023/09/20 12:13:45;;;;;;;;;;;;;;;31.43;30.05;101025.34;4997723;28;19934;-93
2023/09/20 12:16:24;;;;;;;;;;;;;;;31.30;29.94;101011.00;4978935;28;19925;-93
2023/09/20 12:18:58;;;;;;;;;;;;;;;31.29;29.95;101014.16;4979940;28;20374;-94
2023/09/20 12:21:29;;;;;;;;;;;;;;;31.36;29.86;101006.69;4979139;28;19960;-93
2023/09/20 12:23:56;;;;;;;;;;;;;;;31.45;29.85;101009.94;4998352;28;20378;-93
2023/09/20 12:26:25;;;;;;;;;;;;;;;31.53;29.76;101017.13;4995156;28;19925;-93
2023/09/20 12:28:52;;;;;;;;;;;;;;;31.51;29.69;101019.47;4982494;28;20212;-91
2023/09/20 12:31:23;;;;;;;;;;;;;;;31.58;29.68;101008.44;4994553;28;19925;-93
2023/09/20 12:33:52;;;;;;;;;;;;;;;31.73;30.05;101003.03;4980508;28;19972;-88
2023/09/20 12:36:21;;;;;;;;;;;;;;;31.87;29.71;101025.28;4979890;28;19934;-87
2023/09/20 12:38:46;;;;;;;;;;;;;;;31.91;29.73;101015.00;4982668;28;19925;-91
2023/09/20 12:41:15;;;;;;;;;;;;;;;31.95;29.60;101007.50;4981035;28;19928;-92
2023/09/20 12:43:42;;;;;;;;;;;;;;;32.01;29.42;101011.53;4980532;28;19964;-90
2023/09/20 12:46:16;;;;;;;;;;;;;;;32.12;29.41;101003.25;4979837;28;19922;-90
2023/09/20 12:48:44;;;;;;;;;;;;;;;32.05;29.31;100998.47;4980493;28;20382;-93
2023/09/20 12:51:12;;;;;;;;;;;;;;;32.10;29.32;100998.09;5007738;28;19994;-94
2023/09/20 12:53:38;;;;;;;;;;;;;;;32.20;28.70;101004.09;5016817;28;19926;-91
2023/09/20 12:56:07;;;;;;;;;;;;;;;32.16;29.15;101001.31;4997686;28;19922;-93
2023/09/20 12:58:33;;;;;;;;;;;;;;;32.17;28.96;101006.47;4984927;28;19972;-93
2023/09/20 13:01:04;;;;;;;;;;;;;;;32.16;29.17;100996.56;4981507;28;19972;-93
2023/09/20 13:03:31;;;;;;;;;;;;;;;32.06;29.10;100994.50;4976155;28;20304;-90
2023/09/20 13:05:57;;;;;;;;;;;;;;;31.93;28.78;100995.22;4982197;28;19990;-93
2023/09/20 13:08:24;;;;;;;;;;;;;;;31.69;29.19;100997.44;4984692;28;19921;-91
2023/09/20 13:10:51;;;;;;;;;;;;;;;31.73;29.18;100995.50;4977262;28;20443;-88
2023/09/20 13:13:17;;;;;;;;;;;;;;;31.67;29.31;100985.16;4979629;28;20320;-93
2023/09/20 13:15:43;;;;;;;;;;;;;;;31.74;28.89;100993.53;4981052;28;20021;-90
2023/09/20 13:18:10;;;;;;;;;;;;;;;31.85;28.95;100986.09;4982627;28;20057;-92
2023/09/20 13:21:00;;;;;;;;;;;;;;;32.04;28.51;100988.56;4979911;28;20364;-91
2023/09/20 13:23:26;;;;;;;;;;;;;;;32.11;28.75;101005.22;4982474;28;20276;-93
2023/09/20 13:25:53;;;;;;;;;;;;;;;32.09;28.47;100988.19;4994617;28;19928;-92